Time;durP1;ratioP1;P1;durP2;ratioP2;P2;SDS_P1;SDS_P2;PMS_P1;PMS_P2;Temp;Humidity;BMP_temperature;BMP_pressure;BME280_temperature;BME280_humidity;BME280_pressure;Samples;Min_cycle;Max_cycle;Signal;HPM_P1;HPM_P2
2022/05/04 00:00:52;;;;;;;0.22;0.20;;;;;;;;;;4179564;28;20102;-41
2022/05/04 00:02:53;;;;;;;0.52;0.15;;;;;;;;;;4179525;28;20412;-43
2022/05/04 00:04:54;;;;;;;0.32;0.20;;;;;;;;;;4179549;28;20534;-42
2022/05/04 00:06:55;;;;;;;0.10;0.10;;;;;;;;;;4179603;28;20099;-43
2022/05/04 00:08:56;;;;;;;0.20;0.20;;;;;;;;;;4179755;28;20106;-43
2022/05/04 00:10:57;;;;;;;0.45;0.20;;;;;;;;;;4179709;28;20413;-43
2022/05/04 00:12:59;;;;;;;0.20;0.10;;;;;;;;;;4179589;28;20098;-42
2022/05/04 00:15:00;;;;;;;0.10;0.10;;;;;;;;;;4179090;28;20095;-44
2022/05/04 00:17:02;;;;;;;0.00;0.00;;;;;;;;;;4179851;28;20063;-42
2022/05/04 00:19:03;;;;;;;0.70;0.10;;;;;;;;;;4179362;28;20323;-43
2022/05/04 00:21:07;;;;;;;0.30;0.20;;;;;;;;;;4179713;28;20063;-42
2022/05/04 00:23:08;;;;;;;0.10;0.10;;;;;;;;;;4179379;28;20472;-42
2022/05/04 00:25:10;;;;;;;0.10;0.10;;;;;;;;;;4177834;28;20053;-42
2022/05/04 00:27:12;;;;;;;0.43;0.17;;;;;;;;;;4179392;28;20049;-43
2022/05/04 00:29:13;;;;;;;0.13;0.13;;;;;;;;;;4177488;28;20057;-43
2022/05/04 00:31:14;;;;;;;0.20;0.15;;;;;;;;;;4179235;28;20061;-42
2022/05/04 00:33:16;;;;;;;0.30;0.20;;;;;;;;;;4179283;28;20507;-42
2022/05/04 00:35:17;;;;;;;0.20;0.10;;;;;;;;;;4179175;28;20052;-43
2022/05/04 00:37:18;;;;;;;0.13;0.13;;;;;;;;;;4179563;28;20315;-43
2022/05/04 00:39:20;;;;;;;0.10;0.10;;;;;;;;;;4179142;28;20394;-42
2022/05/04 00:41:21;;;;;;;0.30;0.10;;;;;;;;;;4179422;28;20052;-42
2022/05/04 00:43:23;;;;;;;0.30;0.22;;;;;;;;;;4179083;28;20052;-41
2022/05/04 00:45:24;;;;;;;0.20;0.10;;;;;;;;;;4178751;28;20472;-43
2022/05/04 00:47:26;;;;;;;0.10;0.10;;;;;;;;;;4179081;28;20065;-43
2022/05/04 00:49:27;;;;;;;0.30;0.15;;;;;;;;;;4179256;28;20049;-43
2022/05/04 00:51:28;;;;;;;0.20;0.20;;;;;;;;;;4179123;28;20505;-42
2022/05/04 00:53:30;;;;;;;0.57;0.20;;;;;;;;;;4179006;28;20102;-43
2022/05/04 00:55:31;;;;;;;0.68;0.20;;;;;;;;;;4178951;28;20123;-42
2022/05/04 00:59:53;;;;;;;0.32;0.10;;;;;;;;;;4178467;28;20116;-42
2022/05/04 01:01:54;;;;;;;0.30;0.10;;;;;;;;;;4177802;28;20049;-42
2022/05/04 01:03:56;;;;;;;0.35;0.17;;;;;;;;;;4178712;28;20444;-42
2022/05/04 01:05:58;;;;;;;0.90;0.20;;;;;;;;;;4179272;28;20543;-43
2022/05/04 01:07:59;;;;;;;0.45;0.10;;;;;;;;;;4179085;28;20103;-41
2022/05/04 01:10:00;;;;;;;0.10;0.10;;;;;;;;;;4178849;28;20414;-43
2022/05/04 01:12:01;;;;;;;0.10;0.10;;;;;;;;;;4178965;28;20053;-42
2022/05/04 01:14:05;;;;;;;0.20;0.10;;;;;;;;;;4178598;28;20045;-42
2022/05/04 01:16:06;;;;;;;1.27;0.30;;;;;;;;;;4178916;28;20103;-43
2022/05/04 01:18:08;;;;;;;0.20;0.15;;;;;;;;;;4178852;28;20053;-42
2022/05/04 01:20:09;;;;;;;0.40;0.20;;;;;;;;;;4178853;28;20053;-42
2022/05/04 01:22:11;;;;;;;0.40;0.20;;;;;;;;;;4178877;28;20289;-42
2022/05/04 01:24:12;;;;;;;0.80;0.10;;;;;;;;;;4177607;28;20053;-43
2022/05/04 01:26:16;;;;;;;0.47;0.15;;;;;;;;;;4179068;28;20103;-42
2022/05/04 01:28:17;;;;;;;0.68;0.15;;;;;;;;;;4178920;28;20099;-42
2022/05/04 01:30:18;;;;;;;0.35;0.10;;;;;;;;;;4178288;28;20049;-43
2022/05/04 01:32:19;;;;;;;0.20;0.20;;;;;;;;;;4178847;28;20061;-42
2022/05/04 01:34:26;;;;;;;0.30;0.10;;;;;;;;;;4177424;28;20049;-42
2022/05/04 01:36:28;;;;;;;0.10;0.10;;;;;;;;;;4179114;28;20057;-42
2022/05/04 01:38:29;;;;;;;0.13;0.08;;;;;;;;;;4178729;28;20064;-42
2022/05/04 01:40:30;;;;;;;0.13;0.08;;;;;;;;;;4178720;28;20057;-42
2022/05/04 01:42:31;;;;;;;0.10;0.10;;;;;;;;;;4177213;28;20151;-42
2022/05/04 01:44:33;;;;;;;0.35;0.10;;;;;;;;;;4179741;28;20053;-42
2022/05/04 01:46:34;;;;;;;0.17;0.13;;;;;;;;;;4181776;28;20057;-42
2022/05/04 01:48:35;;;;;;;0.20;0.10;;;;;;;;;;4180317;28;20103;-42
2022/05/04 01:50:37;;;;;;;0.70;0.20;;;;;;;;;;4181874;28;20049;-42
2022/05/04 01:52:38;;;;;;;0.50;0.10;;;;;;;;;;4181733;28;20106;-43
2022/05/04 01:54:39;;;;;;;0.22;0.20;;;;;;;;;;4181824;28;20049;-42
2022/05/04 01:56:40;;;;;;;0.25;0.10;;;;;;;;;;4181938;28;20053;-41
2022/05/04 01:58:41;;;;;;;0.73;0.10;;;;;;;;;;4179845;28;20057;-43
2022/05/04 02:00:43;;;;;;;0.10;0.10;;;;;;;;;;4181792;28;20060;-43
2022/05/04 02:02:44;;;;;;;0.10;0.10;;;;;;;;;;4181678;28;20394;-42
2022/05/04 02:04:45;;;;;;;0.22;0.05;;;;;;;;;;4181470;28;20118;-42
2022/05/04 02:06:47;;;;;;;0.43;0.08;;;;;;;;;;4181483;28;20105;-41
2022/05/04 02:08:48;;;;;;;0.43;0.25;;;;;;;;;;4180162;28;20060;-41
2022/05/04 02:10:49;;;;;;;0.40;0.10;;;;;;;;;;4181378;28;20053;-42
2022/05/04 02:12:51;;;;;;;0.20;0.13;;;;;;;;;;4181530;28;20111;-43
2022/05/04 02:14:52;;;;;;;0.40;0.10;;;;;;;;;;4180933;28;20555;-42
2022/05/04 02:16:53;;;;;;;0.77;0.20;;;;;;;;;;4181446;28;20057;-42
2022/05/04 02:18:55;;;;;;;0.22;0.10;;;;;;;;;;4181231;28;20199;-42
2022/05/04 02:20:56;;;;;;;0.10;0.10;;;;;;;;;;4181538;28;20102;-42
2022/05/04 02:22:57;;;;;;;0.43;0.28;;;;;;;;;;4180002;28;20053;-41
2022/05/04 02:24:58;;;;;;;0.20;0.20;;;;;;;;;;4180873;28;20558;-41
2022/05/04 02:26:59;;;;;;;1.85;0.20;;;;;;;;;;4181247;28;20054;-43
2022/05/04 02:29:01;;;;;;;0.10;0.10;;;;;;;;;;4180661;28;20053;-42
2022/05/04 02:31:02;;;;;;;0.20;0.20;;;;;;;;;;4181527;28;20102;-42
2022/05/04 02:33:03;;;;;;;0.35;0.20;;;;;;;;;;4181170;28;20053;-42
2022/05/04 02:39:46;;;;;;;0.25;0.10;;;;;;;;;;4180773;28;20052;-43
2022/05/04 02:41:48;;;;;;;0.10;0.10;;;;;;;;;;4180939;28;20075;-42
2022/05/04 02:43:49;;;;;;;0.20;0.20;;;;;;;;;;4180429;28;20056;-42
2022/05/04 02:45:50;;;;;;;0.30;0.20;;;;;;;;;;4181173;28;20155;-41
2022/05/04 02:47:52;;;;;;;0.55;0.30;;;;;;;;;;4180923;28;20389;-42
2022/05/04 02:49:53;;;;;;;0.30;0.20;;;;;;;;;;4181009;28;20098;-43
2022/05/04 02:51:54;;;;;;;0.22;0.10;;;;;;;;;;4181088;28;20469;-41
2022/05/04 02:53:55;;;;;;;0.38;0.10;;;;;;;;;;4180239;28;20521;-42
2022/05/04 02:55:57;;;;;;;0.10;0.10;;;;;;;;;;4180771;28;20456;-43
2022/05/04 02:57:58;;;;;;;0.28;0.10;;;;;;;;;;4181116;28;20048;-42
2022/05/04 02:59:59;;;;;;;0.57;0.20;;;;;;;;;;4180310;28;20115;-42
2022/05/04 03:04:20;;;;;;;0.20;0.20;;;;;;;;;;4180569;28;20057;-42
2022/05/04 03:06:22;;;;;;;0.60;0.10;;;;;;;;;;4180430;28;20048;-42
2022/05/04 03:08:23;;;;;;;0.25;0.10;;;;;;;;;;4180720;28;20048;-42
2022/05/04 03:10:24;;;;;;;0.30;0.10;;;;;;;;;;4180285;28;20053;-42
2022/05/04 03:12:26;;;;;;;0.40;0.10;;;;;;;;;;4180462;28;20083;-42
2022/05/04 03:14:28;;;;;;;0.40;0.30;;;;;;;;;;4179950;28;20056;-42
2022/05/04 03:16:29;;;;;;;0.20;0.20;;;;;;;;;;4180425;28;20507;-42
2022/05/04 03:18:30;;;;;;;0.28;0.10;;;;;;;;;;4179213;28;20068;-42
2022/05/04 03:20:32;;;;;;;0.13;0.10;;;;;;;;;;4180247;28;20057;-43
2022/05/04 03:22:33;;;;;;;0.20;0.13;;;;;;;;;;4180505;28;20107;-42
2022/05/04 03:24:35;;;;;;;0.20;0.10;;;;;;;;;;4179999;28;20484;-42
2022/05/04 03:26:36;;;;;;;0.20;0.13;;;;;;;;;;4180539;28;20053;-43
2022/05/04 03:28:37;;;;;;;0.15;0.15;;;;;;;;;;4179692;28;20602;-42
2022/05/04 03:30:38;;;;;;;0.43;0.10;;;;;;;;;;4178735;28;20056;-42
2022/05/04 03:32:39;;;;;;;3.40;0.10;;;;;;;;;;4180156;28;20110;-42
2022/05/04 03:34:40;;;;;;;0.35;0.15;;;;;;;;;;4180399;28;20126;-42
2022/05/04 03:36:41;;;;;;;0.10;0.10;;;;;;;;;;4162215;28;20068;-42
2022/05/04 03:38:44;;;;;;;0.28;0.10;;;;;;;;;;4179842;28;20057;-42
2022/05/04 03:40:45;;;;;;;0.80;0.10;;;;;;;;;;4180068;28;20063;-43
2022/05/04 03:42:46;;;;;;;0.73;0.20;;;;;;;;;;4180290;28;20116;-42
2022/05/04 03:44:47;;;;;;;0.60;0.20;;;;;;;;;;4179358;28;20409;-43
2022/05/04 03:46:51;;;;;;;0.20;0.10;;;;;;;;;;4179836;28;20451;-42
2022/05/04 03:48:56;;;;;;;0.20;0.10;;;;;;;;;;4179742;28;20507;-42
2022/05/04 03:50:58;;;;;;;1.45;0.28;;;;;;;;;;4179824;28;20103;-42
2022/05/04 03:52:59;;;;;;;0.20;0.10;;;;;;;;;;4179800;28;20358;-43
2022/05/04 03:55:00;;;;;;;0.45;0.15;;;;;;;;;;4179567;28;20053;-42
2022/05/04 03:57:01;;;;;;;0.43;0.15;;;;;;;;;;4180001;28;20400;-42
2022/05/04 03:59:03;;;;;;;0.28;0.17;;;;;;;;;;4179490;28;20060;-41
2022/05/04 04:01:04;;;;;;;0.15;0.15;;;;;;;;;;4179736;28;20096;-41
2022/05/04 04:03:06;;;;;;;0.30;0.20;;;;;;;;;;4161833;28;20568;-42
2022/05/04 04:05:07;;;;;;;0.38;0.22;;;;;;;;;;4179683;28;20049;-43
2022/05/04 04:07:09;;;;;;;0.25;0.22;;;;;;;;;;4178854;28;20057;-42
2022/05/04 04:09:10;;;;;;;0.20;0.05;;;;;;;;;;4179770;28;20118;-42
2022/05/04 04:11:11;;;;;;;0.47;0.20;;;;;;;;;;4179658;28;20053;-43
2022/05/04 04:13:13;;;;;;;0.15;0.10;;;;;;;;;;4178201;28;20471;-42
2022/05/04 04:15:14;;;;;;;0.10;0.10;;;;;;;;;;4178963;28;20049;-42
2022/05/04 04:17:15;;;;;;;0.50;0.20;;;;;;;;;;4179708;28;20060;-41
2022/05/04 04:19:16;;;;;;;0.50;0.10;;;;;;;;;;4179564;28;20053;-42
2022/05/04 04:23:37;;;;;;;0.30;0.20;;;;;;;;;;4179232;28;20390;-42
2022/05/04 04:25:39;;;;;;;0.28;0.20;;;;;;;;;;4179582;28;20115;-42
2022/05/04 04:27:40;;;;;;;0.50;0.20;;;;;;;;;;4179343;28;20603;-43
2022/05/04 04:29:41;;;;;;;0.13;0.10;;;;;;;;;;4178727;28;20055;-43
2022/05/04 04:31:42;;;;;;;0.32;0.10;;;;;;;;;;4179349;28;20052;-42
2022/05/04 04:33:44;;;;;;;0.50;0.20;;;;;;;;;;4179140;28;20360;-41
2022/05/04 04:35:45;;;;;;;0.17;0.10;;;;;;;;;;4177743;28;20060;-42
2022/05/04 04:37:46;;;;;;;0.32;0.20;;;;;;;;;;4179222;28;20053;-43
2022/05/04 04:39:48;;;;;;;0.20;0.10;;;;;;;;;;4179055;28;20057;-43
2022/05/04 04:41:49;;;;;;;0.10;0.00;;;;;;;;;;4179482;28;20115;-42
2022/05/04 04:43:50;;;;;;;0.30;0.20;;;;;;;;;;4178453;28;20124;-42
2022/05/04 04:45:51;;;;;;;0.10;0.10;;;;;;;;;;4179119;28;20493;-42
2022/05/04 04:47:52;;;;;;;0.43;0.10;;;;;;;;;;4179184;28;20053;-43
2022/05/04 04:49:57;;;;;;;0.20;0.08;;;;;;;;;;4179260;28;20098;-43
2022/05/04 04:51:58;;;;;;;0.13;0.10;;;;;;;;;;4179172;28;20052;-42
2022/05/04 04:53:59;;;;;;;0.82;0.20;;;;;;;;;;4179041;28;20053;-43
2022/05/04 04:56:00;;;;;;;0.57;0.20;;;;;;;;;;4179161;28;20056;-42
2022/05/04 04:58:01;;;;;;;0.20;0.10;;;;;;;;;;4179043;28;20052;-43
2022/05/04 05:00:04;;;;;;;0.30;0.20;;;;;;;;;;4178817;28;20053;-41
2022/05/04 05:02:05;;;;;;;0.52;0.10;;;;;;;;;;4175568;28;20126;-42
2022/05/04 05:04:06;;;;;;;0.95;0.10;;;;;;;;;;4176762;28;20114;-42
2022/05/04 05:06:07;;;;;;;0.28;0.10;;;;;;;;;;4176944;28;20389;-43
2022/05/04 05:08:10;;;;;;;0.55;0.20;;;;;;;;;;4177147;28;20328;-42
2022/05/04 05:10:11;;;;;;;0.10;0.10;;;;;;;;;;4176859;28;20334;-41
2022/05/04 05:12:12;;;;;;;0.20;0.10;;;;;;;;;;4176925;28;20053;-42
2022/05/04 05:16:34;;;;;;;0.30;0.30;;;;;;;;;;4175885;28;20095;-41
2022/05/04 05:18:36;;;;;;;0.50;0.20;;;;;;;;;;4179622;28;20057;-41
2022/05/04 05:20:38;;;;;;;0.30;0.10;;;;;;;;;;4180288;28;20053;-41
2022/05/04 05:22:39;;;;;;;0.60;0.10;;;;;;;;;;4180248;28;20057;-42
2022/05/04 05:24:40;;;;;;;0.20;0.20;;;;;;;;;;4179516;28;20484;-42
2022/05/04 05:26:42;;;;;;;0.55;0.20;;;;;;;;;;4180228;28;20096;-42
2022/05/04 05:28:43;;;;;;;0.47;0.30;;;;;;;;;;4179826;28;20500;-41
2022/05/04 05:30:44;;;;;;;1.30;0.20;;;;;;;;;;4179922;28;20388;-42
2022/05/04 05:32:45;;;;;;;0.22;0.10;;;;;;;;;;4178834;28;20072;-42
2022/05/04 05:34:47;;;;;;;0.15;0.10;;;;;;;;;;4179998;28;20489;-43
2022/05/04 05:36:48;;;;;;;0.50;0.10;;;;;;;;;;4179764;28;20412;-42
2022/05/04 05:38:49;;;;;;;0.20;0.10;;;;;;;;;;4180281;28;20122;-41
2022/05/04 05:40:50;;;;;;;0.40;0.20;;;;;;;;;;4180011;28;20463;-42
2022/05/04 05:42:52;;;;;;;0.25;0.20;;;;;;;;;;4179882;28;20104;-42
2022/05/04 05:44:53;;;;;;;0.30;0.22;;;;;;;;;;4179520;28;20558;-42
2022/05/04 05:46:54;;;;;;;0.20;0.20;;;;;;;;;;4180184;28;20068;-42
2022/05/04 05:48:55;;;;;;;0.17;0.10;;;;;;;;;;4179330;28;20393;-42
2022/05/04 05:50:56;;;;;;;1.33;0.20;;;;;;;;;;4180047;28;20052;-42
2022/05/04 05:52:57;;;;;;;0.22;0.22;;;;;;;;;;4179923;28;20442;-43
2022/05/04 05:54:59;;;;;;;0.50;0.20;;;;;;;;;;4179420;28;20049;-43
2022/05/04 05:57:00;;;;;;;0.30;0.20;;;;;;;;;;4179904;28;20487;-42
2022/05/04 05:59:03;;;;;;;0.40;0.17;;;;;;;;;;4178941;28;20122;-43
2022/05/04 06:01:06;;;;;;;0.95;0.20;;;;;;;;;;4167355;28;20052;-42
2022/05/04 06:03:07;;;;;;;0.38;0.10;;;;;;;;;;4160736;28;20061;-42
2022/05/04 06:05:08;;;;;;;0.63;0.25;;;;;;;;;;4160674;28;20134;-43
2022/05/04 06:07:10;;;;;;;0.55;0.20;;;;;;;;;;4180289;28;20064;-42
2022/05/04 06:09:11;;;;;;;0.30;0.13;;;;;;;;;;4175612;28;20061;-42
2022/05/04 06:11:12;;;;;;;0.28;0.10;;;;;;;;;;4166057;28;20111;-43
2022/05/04 06:13:14;;;;;;;0.30;0.10;;;;;;;;;;4172962;28;20103;-42
2022/05/04 06:15:15;;;;;;;0.68;0.10;;;;;;;;;;4168520;28;20119;-42
2022/05/04 06:17:16;;;;;;;0.20;0.20;;;;;;;;;;4166894;28;20058;-42
2022/05/04 06:19:17;;;;;;;0.90;0.10;;;;;;;;;;4170565;28;20057;-42
2022/05/04 06:21:18;;;;;;;1.02;0.30;;;;;;;;;;4167244;28;20413;-42
2022/05/04 06:23:20;;;;;;;0.38;0.20;;;;;;;;;;4164621;28;20492;-42
2022/05/04 06:25:21;;;;;;;0.85;0.20;;;;;;;;;;4165636;28;20061;-43
2022/05/04 06:27:22;;;;;;;0.68;0.30;;;;;;;;;;4165608;28;20061;-44
2022/05/04 06:34:06;;;;;;;0.85;0.20;;;;;;;;;;4161792;28;20875;-43
2022/05/04 06:34:07;;;;;;;0.32;0.20;;;;;;;;;;4148616;28;20126;-42
2022/05/04 06:36:08;;;;;;;0.75;0.20;;;;;;;;;;4156302;28;20052;-42
2022/05/04 06:38:10;;;;;;;0.80;0.25;;;;;;;;;;4160942;28;20665;-42
2022/05/04 06:40:11;;;;;;;2.45;0.10;;;;;;;;;;4149633;28;20116;-43
2022/05/04 06:42:12;;;;;;;0.95;0.13;;;;;;;;;;4160342;28;20061;-44
2022/05/04 06:44:14;;;;;;;1.00;0.32;;;;;;;;;;4162604;28;20572;-43
2022/05/04 06:46:15;;;;;;;1.10;0.43;;;;;;;;;;4162265;28;20110;-43
2022/05/04 06:48:17;;;;;;;3.22;0.40;;;;;;;;;;4157209;28;20609;-42
2022/05/04 06:50:18;;;;;;;0.85;0.10;;;;;;;;;;4160033;28;20061;-41
2022/05/04 06:52:19;;;;;;;1.85;0.20;;;;;;;;;;4153707;28;20061;-41
2022/05/04 06:54:20;;;;;;;2.08;0.40;;;;;;;;;;4148258;28;20053;-43
2022/05/04 06:56:21;;;;;;;0.63;0.20;;;;;;;;;;4153567;28;20118;-42
2022/05/04 06:58:22;;;;;;;2.78;0.30;;;;;;;;;;4148223;28;20126;-42
2022/05/04 07:00:23;;;;;;;4.18;0.73;;;;;;;;;;4149504;28;20103;-43
2022/05/04 07:02:26;;;;;;;0.70;0.20;;;;;;;;;;4144188;28;20113;-42
2022/05/04 07:04:27;;;;;;;2.83;0.30;;;;;;;;;;4141512;28;20052;-42
2022/05/04 07:06:29;;;;;;;1.88;0.30;;;;;;;;;;4154008;28;20060;-43
2022/05/04 07:08:31;;;;;;;1.08;0.30;;;;;;;;;;4158412;28;20119;-42
2022/05/04 07:10:32;;;;;;;1.67;0.20;;;;;;;;;;4151326;28;20501;-42
2022/05/04 07:12:34;;;;;;;1.50;0.30;;;;;;;;;;4151394;28;20397;-43
2022/05/04 07:14:35;;;;;;;3.80;0.20;;;;;;;;;;4151249;28;20053;-42
2022/05/04 07:16:37;;;;;;;3.50;0.45;;;;;;;;;;4138873;28;20495;-43
2022/05/04 07:18:37;;;;;;;0.50;0.20;;;;;;;;;;4151040;28;22663;-43
2022/05/04 07:20:39;;;;;;;3.30;0.22;;;;;;;;;;4147751;28;20053;-42
2022/05/04 07:22:40;;;;;;;1.00;0.28;;;;;;;;;;4147090;28;20057;-43
2022/05/04 07:24:42;;;;;;;2.00;0.28;;;;;;;;;;4153119;28;20174;-43
2022/05/04 07:26:43;;;;;;;0.88;0.13;;;;;;;;;;4152623;28;20064;-43
2022/05/04 07:28:45;;;;;;;0.65;0.13;;;;;;;;;;4149839;28;20323;-43
2022/05/04 07:30:46;;;;;;;0.95;0.32;;;;;;;;;;4139874;28;20429;-43
2022/05/04 07:32:47;;;;;;;0.95;0.20;;;;;;;;;;4140772;28;20146;-43
2022/05/04 07:34:48;;;;;;;1.80;0.40;;;;;;;;;;4136453;28;20145;-43
2022/05/04 07:36:49;;;;;;;2.55;0.10;;;;;;;;;;4138613;28;20053;-42
2022/05/04 07:38:50;;;;;;;2.03;0.20;;;;;;;;;;4146682;28;20150;-44
2022/05/04 07:43:11;;;;;;;1.65;0.30;;;;;;;;;;4144294;28;20056;-43
2022/05/04 07:45:15;;;;;;;0.57;0.20;;;;;;;;;;4139650;28;20673;-43
2022/05/04 07:47:16;;;;;;;4.30;0.40;;;;;;;;;;4126956;28;20061;-41
2022/05/04 07:49:17;;;;;;;2.53;0.10;;;;;;;;;;4134482;28;20053;-42
2022/05/04 07:51:18;;;;;;;0.63;0.20;;;;;;;;;;4134277;28;20068;-43
2022/05/04 07:53:20;;;;;;;1.15;0.20;;;;;;;;;;4125824;28;20145;-42
2022/05/04 07:55:23;;;;;;;2.55;0.40;;;;;;;;;;4120815;28;20209;-40
2022/05/04 07:57:24;;;;;;;0.60;0.28;;;;;;;;;;4117596;28;20150;-42
2022/05/04 07:59:25;;;;;;;0.73;0.13;;;;;;;;;;4114423;28;20111;-42
2022/05/04 08:06:29;;;;;;;2.83;0.20;;;;;;;;;;4137674;28;20752;-33
2022/05/04 08:08:30;;;;;;;1.42;0.20;;;;;;;;;;4163054;28;20048;-33
2022/05/04 08:10:32;;;;;;;0.20;0.13;;;;;;;;;;4173692;28;20059;-33
2022/05/04 08:12:34;;;;;;;1.65;0.20;;;;;;;;;;4175328;28;20102;-33
2022/05/04 08:14:36;;;;;;;0.80;0.22;;;;;;;;;;4168964;28;20547;-33
2022/05/04 08:16:37;;;;;;;2.08;0.30;;;;;;;;;;4172652;28;20056;-33
2022/05/04 08:18:41;;;;;;;2.65;0.25;;;;;;;;;;4180165;28;20073;-33
2022/05/04 08:20:42;;;;;;;0.90;0.20;;;;;;;;;;4175057;28;20069;-33
2022/05/04 08:22:44;;;;;;;0.10;0.10;;;;;;;;;;4176128;28;20400;-33
2022/05/04 08:24:44;;;;;;;1.02;0.20;;;;;;;;;;4170482;28;20101;-34
2022/05/04 08:26:46;;;;;;;1.02;0.20;;;;;;;;;;4166765;28;20101;-33
2022/05/04 08:28:47;;;;;;;0.90;0.30;;;;;;;;;;4166979;28;20306;-41
2022/05/04 08:30:48;;;;;;;0.20;0.20;;;;;;;;;;4170151;28;20056;-42
2022/05/04 08:32:49;;;;;;;2.38;0.30;;;;;;;;;;4163474;28;22751;-41
2022/05/04 08:34:50;;;;;;;0.50;0.17;;;;;;;;;;4167733;28;20056;-42
2022/05/04 08:36:51;;;;;;;1.67;0.20;;;;;;;;;;4168765;28;20529;-42
2022/05/04 08:38:52;;;;;;;0.38;0.10;;;;;;;;;;4183920;27;20403;-41
2022/05/04 08:40:55;;;;;;;0.45;0.20;;;;;;;;;;4161995;28;20106;-41
2022/05/04 08:42:59;;;;;;;0.73;0.20;;;;;;;;;;4173170;28;22252;-40
2022/05/04 08:45:01;;;;;;;1.00;0.30;;;;;;;;;;4159711;28;20857;-40
2022/05/04 08:47:03;;;;;;;0.38;0.10;;;;;;;;;;4172011;28;20170;-41
2022/05/04 08:49:05;;;;;;;0.05;0.00;;;;;;;;;;4174185;28;20055;-42
2022/05/04 08:51:07;;;;;;;0.85;0.28;;;;;;;;;;4184989;28;20052;-42
2022/05/04 08:53:08;;;;;;;2.05;0.10;;;;;;;;;;4176546;28;20552;-39
2022/05/04 08:55:10;;;;;;;1.08;0.30;;;;;;;;;;4194452;27;20109;-42
2022/05/04 08:57:11;;;;;;;0.80;0.20;;;;;;;;;;4145844;28;20068;-41
2022/05/04 08:59:12;;;;;;;0.20;0.10;;;;;;;;;;4153617;28;20057;-41
2022/05/04 09:01:13;;;;;;;0.28;0.10;;;;;;;;;;4150467;28;20059;-39
2022/05/04 09:03:14;;;;;;;0.55;0.20;;;;;;;;;;4156060;28;20549;-42
2022/05/04 09:05:26;;;;;;;1.02;0.22;;;;;;;;;;4157536;28;20041;-41
2022/05/04 09:07:28;;;;;;;0.63;0.10;;;;;;;;;;4168122;28;20048;-39
2022/05/04 09:09:33;;;;;;;0.68;0.15;;;;;;;;;;4158730;28;20071;-41
2022/05/04 09:11:38;;;;;;;0.85;0.28;;;;;;;;;;4143367;28;20106;-40
2022/05/04 09:13:46;;;;;;;1.85;0.10;;;;;;;;;;4150575;28;20264;-42
2022/05/04 09:15:47;;;;;;;0.70;0.10;;;;;;;;;;4148036;28;20060;-39
2022/05/04 09:17:55;;;;;;;0.35;0.20;;;;;;;;;;4144783;28;20057;-39
2022/05/04 09:22:17;;;;;;;0.93;0.20;;;;;;;;;;4151491;28;20052;-42
2022/05/04 09:24:28;;;;;;;0.93;0.20;;;;;;;;;;4152899;28;20048;-42
2022/05/04 09:26:28;;;;;;;1.33;0.28;;;;;;;;;;4144798;28;21025;-42
2022/05/04 09:28:29;;;;;;;0.43;0.20;;;;;;;;;;4152751;28;20541;-42
2022/05/04 09:30:30;;;;;;;2.00;0.17;;;;;;;;;;4125447;28;20186;-42
2022/05/04 09:32:31;;;;;;;0.30;0.20;;;;;;;;;;4143443;28;20078;-41
2022/05/04 09:34:35;;;;;;;0.60;0.10;;;;;;;;;;4135016;28;20048;-41
2022/05/04 09:36:36;;;;;;;0.35;0.10;;;;;;;;;;4144401;28;20056;-41
2022/05/04 09:45:51;;;;;;;0.40;0.20;;;;;;;;;;4149037;28;20041;-41
2022/05/04 09:47:54;;;;;;;2.00;0.20;;;;;;;;;;4127608;28;20598;-41
2022/05/04 09:50:01;;;;;;;0.30;0.20;;;;;;;;;;4127962;28;20110;-42
2022/05/04 09:52:03;;;;;;;0.20;0.20;;;;;;;;;;4145508;28;20597;-41
2022/05/04 09:54:16;;;;;;;0.47;0.20;;;;;;;;;;4146715;28;20092;-41
2022/05/04 09:56:17;;;;;;;0.47;0.20;;;;;;;;;;4166175;28;20040;-40
2022/05/04 09:58:18;;;;;;;1.50;0.17;;;;;;;;;;4169753;28;20118;-41
2022/05/04 10:00:21;;;;;;;0.50;0.20;;;;;;;;;;4193714;28;20139;-41
2022/05/04 10:02:22;;;;;;;0.65;0.13;;;;;;;;;;4170771;28;20040;-41
2022/05/04 10:04:25;;;;;;;0.80;0.30;;;;;;;;;;4168980;28;20480;-40
2022/05/04 10:06:27;;;;;;;0.35;0.20;;;;;;;;;;4172779;28;20107;-39
2022/05/04 10:08:28;;;;;;;0.17;0.17;;;;;;;;;;4165928;28;20048;-41
2022/05/04 10:10:30;;;;;;;0.20;0.20;;;;;;;;;;4172883;28;20094;-40
2022/05/04 10:12:31;;;;;;;0.45;0.20;;;;;;;;;;4175408;28;20501;-41
2022/05/04 10:14:32;;;;;;;2.28;0.20;;;;;;;;;;4199574;28;20494;-41
2022/05/04 10:16:37;;;;;;;0.32;0.20;;;;;;;;;;4155160;28;20130;-42
2022/05/04 10:18:40;;;;;;;0.15;0.10;;;;;;;;;;4153848;28;20057;-41
2022/05/04 10:20:44;;;;;;;0.20;0.20;;;;;;;;;;4158648;28;22092;-40
2022/05/04 10:22:56;;;;;;;0.35;0.10;;;;;;;;;;4143792;28;20132;-40
2022/05/04 10:24:59;;;;;;;0.60;0.43;;;;;;;;;;4150048;28;20878;-41
2022/05/04 10:27:03;;;;;;;0.20;0.10;;;;;;;;;;4135046;28;20444;-41
2022/05/04 10:31:53;;;;;;;0.38;0.20;;;;;;;;;;4141135;28;20354;-40
2022/05/04 10:33:57;;;;;;;0.40;0.20;;;;;;;;;;4134438;28;20071;-42
2022/05/04 10:36:17;;;;;;;0.60;0.22;;;;;;;;;;4131842;28;20050;-41
2022/05/04 10:38:27;;;;;;;0.85;0.10;;;;;;;;;;4160675;28;20044;-42
2022/05/04 10:40:50;;;;;;;1.92;0.20;;;;;;;;;;4147783;28;20056;-41
2022/05/04 10:42:57;;;;;;;1.67;0.20;;;;;;;;;;4148632;28;20547;-42
2022/05/04 10:44:58;;;;;;;0.32;0.20;;;;;;;;;;4152616;28;20060;-40
2022/05/04 10:46:59;;;;;;;0.13;0.10;;;;;;;;;;4143140;28;20080;-41
2022/05/04 10:49:05;;;;;;;1.35;0.20;;;;;;;;;;4143545;28;20048;-42
2022/05/04 10:51:09;;;;;;;1.58;0.20;;;;;;;;;;4147497;28;20060;-42
2022/05/04 10:53:25;;;;;;;0.95;0.30;;;;;;;;;;4148797;28;21538;-41
2022/05/04 10:55:38;;;;;;;0.17;0.17;;;;;;;;;;4150372;28;20522;-41
2022/05/04 10:57:41;;;;;;;2.22;0.13;;;;;;;;;;4154430;28;20048;-41
2022/05/04 10:59:43;;;;;;;0.28;0.20;;;;;;;;;;4149579;28;20496;-42
2022/05/04 11:01:44;;;;;;;0.10;0.10;;;;;;;;;;4154234;28;20053;-42
2022/05/04 11:03:54;;;;;;;3.92;0.30;;;;;;;;;;4153611;28;20098;-42
2022/05/04 11:05:55;;;;;;;;;;;;;;;;;;4152709;28;20488;-42
2022/05/04 11:07:57;;;;;;;0.30;0.10;;;;;;;;;;4159380;28;19934;-41
2022/05/04 11:10:00;;;;;;;0.20;0.20;;;;;;;;;;4152389;28;20044;-40
2022/05/04 11:12:03;;;;;;;0.15;0.15;;;;;;;;;;4145431;28;20728;-42
2022/05/04 11:14:05;;;;;;;0.15;0.10;;;;;;;;;;4148593;28;20059;-42
2022/05/04 11:16:05;;;;;;;0.38;0.10;;;;;;;;;;4152648;28;20125;-40
2022/05/04 11:18:18;;;;;;;0.30;0.20;;;;;;;;;;4158174;28;20066;-40
2022/05/04 11:20:22;;;;;;;0.40;0.20;;;;;;;;;;4156009;28;20473;-42
2022/05/04 11:22:23;;;;;;;0.28;0.17;;;;;;;;;;4146237;28;20492;-41
2022/05/04 11:24:24;;;;;;;0.85;0.30;;;;;;;;;;4146814;28;20077;-42
2022/05/04 11:26:27;;;;;;;0.15;0.10;;;;;;;;;;4155153;28;21113;-42
2022/05/04 11:28:28;;;;;;;0.10;0.10;;;;;;;;;;4143199;28;20044;-41
2022/05/04 11:30:30;;;;;;;2.92;0.20;;;;;;;;;;4142831;28;20111;-41
2022/05/04 11:32:33;;;;;;;0.40;0.20;;;;;;;;;;4181234;28;20109;-41
2022/05/04 11:34:35;;;;;;;0.93;0.30;;;;;;;;;;4141274;28;20416;-42
2022/05/04 11:36:36;;;;;;;0.10;0.10;;;;;;;;;;4150340;28;20200;-41
2022/05/04 11:38:38;;;;;;;0.35;0.10;;;;;;;;;;4156432;28;20230;-42
2022/05/04 11:40:43;;;;;;;0.57;0.30;;;;;;;;;;4153054;28;20469;-42
2022/05/04 11:42:44;;;;;;;0.60;0.20;;;;;;;;;;4152011;28;20500;-42
2022/05/04 11:44:47;;;;;;;0.20;0.20;;;;;;;;;;4151447;28;20079;-42
2022/05/04 11:46:55;;;;;;;0.25;0.20;;;;;;;;;;4148293;28;20134;-41
2022/05/04 11:48:57;;;;;;;0.60;0.17;;;;;;;;;;4142844;28;21200;-42
2022/05/04 11:50:58;;;;;;;1.17;0.10;;;;;;;;;;4164837;28;20398;-41
2022/05/04 11:53:00;;;;;;;1.25;0.13;;;;;;;;;;4159971;28;20127;-41
2022/05/04 11:55:01;;;;;;;0.30;0.17;;;;;;;;;;4142586;28;20484;-42
2022/05/04 11:57:09;;;;;;;0.20;0.20;;;;;;;;;;4141370;28;20114;-41
2022/05/04 11:59:10;;;;;;;0.77;0.30;;;;;;;;;;4148597;28;20059;-42
2022/05/04 12:01:13;;;;;;;0.20;0.20;;;;;;;;;;4154472;28;20200;-42
2022/05/04 12:03:14;;;;;;;0.28;0.20;;;;;;;;;;4139698;28;21095;-41
2022/05/04 12:05:16;;;;;;;0.68;0.30;;;;;;;;;;4152126;28;20727;-41
2022/05/04 12:07:18;;;;;;;0.20;0.20;;;;;;;;;;4140986;28;20049;-41
2022/05/04 12:09:20;;;;;;;0.40;0.20;;;;;;;;;;4138544;28;20053;-40
2022/05/04 12:11:22;;;;;;;1.27;0.28;;;;;;;;;;4142101;28;20492;-41
2022/05/04 12:13:24;;;;;;;0.57;0.10;;;;;;;;;;4131465;28;20056;-39
2022/05/04 12:15:29;;;;;;;1.08;0.20;;;;;;;;;;4135335;28;20048;-41
2022/05/04 12:17:34;;;;;;;0.35;0.13;;;;;;;;;;4151192;28;20048;-41
2022/05/04 12:19:35;;;;;;;0.22;0.22;;;;;;;;;;4142880;28;20048;-39
2022/05/04 12:21:37;;;;;;;0.22;0.10;;;;;;;;;;4147090;28;20063;-41
2022/05/04 12:23:40;;;;;;;0.40;0.20;;;;;;;;;;4145677;28;20068;-41
2022/05/04 12:25:41;;;;;;;0.43;0.17;;;;;;;;;;4154999;28;20734;-41
2022/05/04 12:27:43;;;;;;;0.25;0.15;;;;;;;;;;4148853;28;20049;-40
2022/05/04 12:34:24;;;;;;;0.35;0.32;;;;;;;;;;4137754;28;20441;-40
2022/05/04 12:36:25;;;;;;;3.80;0.40;;;;;;;;;;4139545;28;20165;-38
2022/05/04 12:38:27;;;;;;;0.68;0.20;;;;;;;;;;4144274;28;20419;-39
2022/05/04 12:40:29;;;;;;;0.93;0.20;;;;;;;;;;4146424;28;20444;-37
2022/05/04 12:42:30;;;;;;;0.22;0.20;;;;;;;;;;4152187;28;20098;-40
2022/05/04 12:44:34;;;;;;;0.57;0.10;;;;;;;;;;4149051;28;20049;-40
2022/05/04 12:46:37;;;;;;;0.40;0.30;;;;;;;;;;4148330;28;20646;-38
2022/05/04 12:48:42;;;;;;;0.30;0.22;;;;;;;;;;4145360;28;20075;-40
2022/05/04 12:50:43;;;;;;;0.45;0.20;;;;;;;;;;4147396;28;20060;-40
2022/05/04 12:52:44;;;;;;;0.32;0.20;;;;;;;;;;4156241;28;20060;-40